Time;durP1;ratioP1;P1;durP2;ratioP2;P2;SDS_P1;SDS_P2;PMS_P1;PMS_P2;Temp;Humidity;BMP_temperature;BMP_pressure;BME280_temperature;BME280_humidity;BME280_pressure;Samples;Min_cycle;Max_cycle;Signal;HPM_P1;HPM_P2
2022/07/09 00:01:58;;;;;;;10.27;6.38;;;13.90;89.60;;;;;;5069080;28;20125;-42
2022/07/09 00:04:24;;;;;;;10.90;6.72;;;13.90;89.60;;;;;;5051215;28;20170;-42
2022/07/09 00:06:49;;;;;;;12.07;7.40;;;13.90;89.60;;;;;;5069530;28;20052;-42
2022/07/09 00:09:15;;;;;;;11.18;7.70;;;13.90;89.70;;;;;;5068876;28;20393;-42
2022/07/09 00:11:43;;;;;;;11.77;7.45;;;13.90;89.70;;;;;;5051284;28;20037;-42
2022/07/09 00:14:11;;;;;;;12.15;6.75;;;13.90;89.80;;;;;;5068779;28;20161;-42
2022/07/09 00:16:37;;;;;;;8.63;5.85;;;13.90;89.80;;;;;;5068521;28;20025;-42
2022/07/09 00:19:03;;;;;;;10.98;6.88;;;13.90;89.80;;;;;;5068812;28;20339;-42
2022/07/09 00:21:28;;;;;;;9.90;7.32;;;13.90;89.80;;;;;;5068781;28;20123;-43
2022/07/09 00:23:56;;;;;;;9.48;6.55;;;13.90;89.80;;;;;;5068711;28;20416;-44
2022/07/09 00:26:22;;;;;;;9.68;5.88;;;13.90;89.70;;;;;;5068978;28;20339;-44
2022/07/09 00:28:47;;;;;;;15.13;7.15;;;13.80;89.80;;;;;;5051089;28;20046;-42
2022/07/09 00:31:13;;;;;;;13.10;6.95;;;13.90;89.80;;;;;;5050857;28;20040;-42
2022/07/09 00:33:38;;;;;;;12.95;7.88;;;13.90;89.90;;;;;;5051000;28;20039;-43
2022/07/09 00:36:04;;;;;;;12.23;7.85;;;13.90;90.00;;;;;;5068792;28;20205;-42
2022/07/09 00:38:30;;;;;;;10.65;7.63;;;13.90;90.00;;;;;;5068375;28;20323;-42
2022/07/09 00:40:56;;;;;;;12.70;7.00;;;13.90;90.10;;;;;;5050721;28;20035;-42
2022/07/09 00:43:24;;;;;;;12.50;8.13;;;13.90;90.20;;;;;;5068636;28;20358;-42
2022/07/09 00:45:49;;;;;;;10.73;7.72;;;14.00;90.10;;;;;;5034151;28;20029;-42
2022/07/09 00:48:15;;;;;;;12.75;8.18;;;14.00;90.20;;;;;;5050555;28;20495;-42
2022/07/09 00:50:44;;;;;;;9.63;7.15;;;14.00;90.20;;;;;;5068587;28;20032;-42
2022/07/09 00:53:13;;;;;;;8.35;6.63;;;14.00;90.20;;;;;;5069002;28;20507;-42
2022/07/09 00:55:39;;;;;;;11.65;7.53;;;14.10;90.20;;;;;;5068556;28;20047;-42
2022/07/09 00:58:06;;;;;;;9.55;7.35;;;14.10;90.30;;;;;;5051083;28;20453;-42
2022/07/09 01:00:33;;;;;;;10.38;8.18;;;14.20;90.30;;;;;;5050863;28;20036;-44
2022/07/09 01:03:01;;;;;;;9.48;8.02;;;14.20;90.30;;;;;;5068634;28;20346;-44
2022/07/09 01:05:27;;;;;;;12.38;7.85;;;14.20;90.40;;;;;;5050400;28;20458;-42
2022/07/09 01:07:53;;;;;;;10.23;7.57;;;14.20;90.40;;;;;;5050839;28;20090;-42
2022/07/09 01:10:19;;;;;;;15.75;8.38;;;14.30;90.50;;;;;;5068623;28;20045;-42
2022/07/09 01:12:47;;;;;;;12.48;7.18;;;14.30;90.50;;;;;;5069172;28;20016;-43
2022/07/09 01:15:13;;;;;;;13.70;7.30;;;14.30;90.40;;;;;;5072195;28;20049;-42
2022/07/09 01:17:43;;;;;;;10.68;7.75;;;14.30;90.50;;;;;;5053101;28;20475;-44
2022/07/09 01:20:09;;;;;;;10.15;7.10;;;14.30;90.50;;;;;;5070535;28;20081;-43
2022/07/09 01:22:35;;;;;;;12.18;6.82;;;14.30;90.60;;;;;;5086609;28;20419;-44
2022/07/09 01:25:03;;;;;;;12.88;7.20;;;14.40;90.60;;;;;;5070712;28;20739;-42
2022/07/09 01:27:29;;;;;;;10.27;6.30;;;14.40;90.60;;;;;;5068982;28;20438;-44
2022/07/09 01:29:55;;;;;;;13.98;7.55;;;14.40;90.70;;;;;;5036890;28;20040;-42
2022/07/09 01:32:20;;;;;;;10.15;6.50;;;14.40;90.70;;;;;;5071483;28;20105;-45
2022/07/09 01:34:46;;;;;;;11.27;6.95;;;14.40;90.70;;;;;;5053501;28;20033;-42
2022/07/09 01:37:13;;;;;;;9.27;6.65;;;14.40;90.70;;;;;;5053549;28;20028;-42
2022/07/09 01:39:49;;;;;;;13.38;7.72;;;14.40;90.70;;;;;;5071364;28;20086;-44
2022/07/09 01:42:21;;;;;;;11.93;6.65;;;14.40;90.70;;;;;;5069137;28;20040;-42
2022/07/09 01:44:49;;;;;;;7.93;5.47;;;14.50;90.80;;;;;;5071011;28;20034;-43
2022/07/09 01:47:15;;;;;;;9.13;6.35;;;14.50;90.80;;;;;;5071255;28;20039;-43
2022/07/09 01:49:41;;;;;;;9.73;6.22;;;14.50;90.80;;;;;;5070810;28;20021;-42
2022/07/09 01:52:10;;;;;;;9.80;6.53;;;14.50;90.80;;;;;;5068419;28;20025;-42
2022/07/09 01:54:36;;;;;;;12.68;7.63;;;14.60;90.80;;;;;;5071784;28;20108;-43
2022/07/09 01:57:04;;;;;;;12.43;6.95;;;14.60;90.80;;;;;;5071187;28;20103;-43
2022/07/09 01:59:30;;;;;;;7.97;6.68;;;14.60;90.80;;;;;;5050058;28;20063;-42
2022/07/09 02:01:55;;;;;;;11.05;7.00;;;14.60;90.80;;;;;;5071487;28;20064;-43
2022/07/09 02:04:21;;;;;;;9.48;6.53;;;14.60;90.80;;;;;;5070626;28;20036;-42
2022/07/09 02:06:49;;;;;;;15.63;7.85;;;14.60;90.80;;;;;;5071448;28;20438;-42
2022/07/09 02:09:17;;;;;;;14.43;8.27;;;14.60;90.80;;;;;;5053137;28;20064;-43
2022/07/09 02:11:43;;;;;;;12.30;7.45;;;14.70;90.80;;;;;;5071012;28;20032;-45
2022/07/09 02:14:08;;;;;;;12.65;6.93;;;14.70;90.90;;;;;;5071117;28;20338;-43
2022/07/09 02:16:34;;;;;;;11.20;6.47;;;14.70;90.80;;;;;;5053417;28;20028;-43
2022/07/09 02:19:00;;;;;;;16.88;7.35;;;14.70;90.90;;;;;;5070890;28;20024;-42
2022/07/09 02:21:25;;;;;;;11.02;6.40;;;14.70;90.90;;;;;;5085022;28;20048;-42
2022/07/09 02:23:58;;;;;;;13.43;6.75;;;14.70;90.90;;;;;;5070473;28;20106;-43
2022/07/09 02:26:28;;;;;;;9.60;7.10;;;14.70;90.90;;;;;;5053094;28;20167;-42
2022/07/09 02:28:54;;;;;;;;;;;14.80;91.00;;;;;;5053673;28;20078;-42
2022/07/09 02:31:19;;;;;;;11.10;7.30;;;14.70;91.00;;;;;;5052645;28;19940;-43
2022/07/09 02:33:45;;;;;;;14.32;8.02;;;14.80;91.00;;;;;;5070411;28;20020;-45
2022/07/09 02:36:13;;;;;;;14.13;8.00;;;14.80;91.00;;;;;;5052980;28;20468;-42
2022/07/09 02:38:39;;;;;;;13.15;8.43;;;14.80;91.10;;;;;;5070434;28;20021;-42
2022/07/09 02:41:07;;;;;;;17.50;7.80;;;14.80;91.10;;;;;;5070270;28;20043;-43
2022/07/09 02:43:35;;;;;;;14.57;7.88;;;14.90;91.10;;;;;;5036282;28;20413;-42
2022/07/09 02:46:03;;;;;;;11.50;8.00;;;14.90;91.20;;;;;;5050130;28;20037;-42
2022/07/09 02:48:29;;;;;;;11.15;7.47;;;14.90;91.10;;;;;;5050076;28;20029;-42
2022/07/09 02:50:55;;;;;;;11.93;7.38;;;14.90;91.10;;;;;;5050246;28;20454;-42
2022/07/09 02:53:21;;;;;;;12.43;7.05;;;14.80;91.10;;;;;;5050345;28;20031;-42
2022/07/09 02:55:47;;;;;;;12.38;7.53;;;14.80;91.10;;;;;;5050193;28;20028;-43
2022/07/09 02:58:12;;;;;;;13.75;8.05;;;14.80;91.10;;;;;;5050133;28;20013;-42
2022/07/09 03:00:40;;;;;;;11.25;7.45;;;14.80;91.20;;;;;;5049577;28;20403;-41
2022/07/09 03:03:06;;;;;;;16.27;7.85;;;14.80;91.20;;;;;;5050077;28;20025;-43
2022/07/09 03:05:32;;;;;;;10.85;6.80;;;14.80;91.20;;;;;;5032234;28;20086;-45
2022/07/09 03:08:00;;;;;;;13.82;7.72;;;14.80;91.20;;;;;;5046014;28;20513;-42
2022/07/09 03:10:28;;;;;;;8.30;6.75;;;14.70;91.20;;;;;;5049470;28;20029;-42
2022/07/09 03:12:54;;;;;;;13.93;7.28;;;14.70;91.20;;;;;;5032403;28;20032;-42
2022/07/09 03:15:23;;;;;;;9.50;5.93;;;14.70;91.20;;;;;;5032328;28;20028;-42
2022/07/09 03:17:53;;;;;;;10.00;6.97;;;14.70;91.20;;;;;;5032042;28;20461;-42
2022/07/09 03:20:19;;;;;;;12.52;6.50;;;14.70;91.20;;;;;;5049096;28;20029;-42
2022/07/09 03:22:44;;;;;;;16.80;7.07;;;14.70;91.30;;;;;;5049207;28;20033;-42
2022/07/09 03:25:10;;;;;;;10.93;7.20;;;14.70;91.30;;;;;;5016111;28;20069;-42
2022/07/09 03:27:35;;;;;;;12.25;7.20;;;14.70;91.30;;;;;;5031749;28;20115;-42
2022/07/09 03:30:03;;;;;;;14.23;7.60;;;14.70;91.30;;;;;;5049130;28;20038;-42
2022/07/09 03:32:29;;;;;;;9.00;6.05;;;14.70;91.40;;;;;;5015829;28;20025;-42
2022/07/09 03:34:57;;;;;;;9.80;6.13;;;14.70;91.40;;;;;;5049433;28;20431;-43
2022/07/09 03:37:22;;;;;;;14.02;8.02;;;14.80;91.40;;;;;;5049208;28;20035;-42
2022/07/09 03:39:48;;;;;;;8.55;6.60;;;14.80;91.40;;;;;;5049080;28;20029;-43
2022/07/09 03:42:16;;;;;;;11.48;7.32;;;14.70;91.40;;;;;;5031240;28;20454;-42
2022/07/09 03:44:42;;;;;;;9.93;6.50;;;14.80;91.40;;;;;;5044734;28;20480;-41
2022/07/09 03:47:10;;;;;;;9.95;6.95;;;14.80;91.40;;;;;;5030210;28;20068;-42
2022/07/09 03:49:36;;;;;;;9.55;7.18;;;14.80;91.40;;;;;;5034603;28;20055;-42
2022/07/09 03:52:02;;;;;;;13.27;6.45;;;14.80;91.40;;;;;;5044873;28;20044;-42
2022/07/09 03:54:30;;;;;;;10.05;6.85;;;14.90;91.50;;;;;;5037596;28;20354;-42
2022/07/09 03:56:56;;;;;;;11.05;6.47;;;14.90;91.50;;;;;;5017037;28;20031;-42
2022/07/09 03:59:24;;;;;;;10.27;5.75;;;14.90;91.50;;;;;;5040808;28;20096;-43
2022/07/09 04:01:49;;;;;;;8.95;6.30;;;14.90;91.50;;;;;;5011587;28;20037;-41
2022/07/09 04:04:15;;;;;;;8.43;5.25;;;14.90;91.60;;;;;;5034173;28;20120;-42
2022/07/09 04:06:41;;;;;;;10.02;5.53;;;14.90;91.60;;;;;;5049410;28;20029;-42
2022/07/09 04:09:06;;;;;;;8.80;5.47;;;15.00;91.60;;;;;;5032250;28;20445;-41
2022/07/09 04:11:32;;;;;;;10.60;5.78;;;15.00;91.60;;;;;;5028942;28;20338;-41
2022/07/09 04:14:02;;;;;;;10.60;6.68;;;15.10;91.60;;;;;;5027007;28;20021;-42
2022/07/09 04:16:30;;;;;;;10.52;6.03;;;15.10;91.60;;;;;;5030020;28;20091;-43
2022/07/09 04:18:55;;;;;;;8.25;5.00;;;15.10;91.60;;;;;;5034557;28;20034;-43
2022/07/09 04:21:21;;;;;;;12.35;5.50;;;15.20;91.70;;;;;;5028920;28;20091;-42
2022/07/09 04:23:51;;;;;;;8.82;5.15;;;15.20;91.60;;;;;;5028100;28;20044;-42
2022/07/09 04:26:20;;;;;;;7.72;4.43;;;15.30;91.70;;;;;;5048468;28;20049;-42
2022/07/09 04:28:48;;;;;;;10.35;5.43;;;15.30;91.70;;;;;;5030080;28;20094;-42
2022/07/09 04:31:15;;;;;;;9.07;5.63;;;15.30;91.70;;;;;;5022908;28;20029;-41
2022/07/09 04:33:44;;;;;;;6.70;4.70;;;15.40;91.70;;;;;;5039139;28;20017;-42
2022/07/09 04:36:10;;;;;;;7.23;4.47;;;15.40;91.70;;;;;;5026625;28;20355;-42
2022/07/09 04:38:36;;;;;;;8.65;5.40;;;15.40;91.70;;;;;;5029954;28;20021;-45
2022/07/09 04:41:02;;;;;;;10.15;5.68;;;15.40;91.70;;;;;;5048447;28;20032;-43
2022/07/09 04:43:29;;;;;;;8.70;5.60;;;15.50;91.70;;;;;;5063371;28;20040;-42
2022/07/09 04:45:55;;;;;;;9.25;5.53;;;15.50;91.60;;;;;;5049925;28;20119;-42
2022/07/09 04:48:21;;;;;;;8.55;4.70;;;15.50;91.60;;;;;;5069772;28;20118;-42
2022/07/09 04:50:46;;;;;;;9.20;5.22;;;15.50;91.60;;;;;;5072354;28;20442;-42
2022/07/09 04:53:14;;;;;;;8.50;4.75;;;15.60;91.60;;;;;;5071543;28;20349;-42
2022/07/09 04:55:40;;;;;;;8.93;5.50;;;15.50;91.60;;;;;;5054123;28;20364;-42
2022/07/09 04:58:08;;;;;;;9.20;5.00;;;15.60;91.60;;;;;;5072892;28;20090;-43
2022/07/09 05:00:34;;;;;;;8.60;5.80;;;15.60;91.70;;;;;;5055057;28;20429;-43
2022/07/09 05:03:00;;;;;;;8.10;5.53;;;15.70;91.70;;;;;;5072607;28;20050;-43
2022/07/09 05:05:26;;;;;;;9.18;5.72;;;15.70;91.70;;;;;;5054969;28;20477;-42
2022/07/09 05:07:54;;;;;;;10.75;6.25;;;15.80;91.70;;;;;;5072683;28;20032;-44
2022/07/09 05:10:20;;;;;;;9.68;5.75;;;15.70;91.60;;;;;;5072244;28;20123;-44
2022/07/09 05:12:46;;;;;;;8.13;5.63;;;15.70;91.70;;;;;;5072523;28;20469;-43
2022/07/09 05:15:13;;;;;;;9.73;5.88;;;15.80;91.60;;;;;;5072410;28;20078;-42
2022/07/09 05:17:40;;;;;;;9.65;5.50;;;15.80;91.70;;;;;;5072602;28;20430;-42
2022/07/09 05:20:08;;;;;;;7.00;5.40;;;15.80;91.70;;;;;;5067881;28;20442;-42
2022/07/09 05:22:36;;;;;;;13.90;5.10;;;15.80;91.60;;;;;;5063926;28;20042;-42
2022/07/09 05:25:03;;;;;;;6.47;4.35;;;15.80;91.70;;;;;;5051939;28;20039;-41
2022/07/09 05:27:29;;;;;;;12.35;5.60;;;15.80;91.70;;;;;;5069119;28;20437;-43
2022/07/09 05:29:55;;;;;;;8.70;5.30;;;15.80;91.80;;;;;;5052523;28;20082;-44
2022/07/09 05:32:21;;;;;;;14.40;5.28;;;15.90;91.90;;;;;;5070322;28;20145;-43
2022/07/09 05:34:46;;;;;;;8.68;5.05;;;15.90;91.80;;;;;;5068155;28;20029;-42
2022/07/09 05:37:12;;;;;;;8.32;4.30;;;16.00;91.80;;;;;;5071012;28;20031;-42
2022/07/09 05:39:38;;;;;;;9.60;3.60;;;16.00;91.80;;;;;;5071659;28;20398;-43
2022/07/09 05:42:04;;;;;;;7.93;4.88;;;16.10;91.80;;;;;;5071495;28;20052;-42
2022/07/09 05:44:33;;;;;;;10.52;4.93;;;16.10;91.80;;;;;;5069688;28;20032;-43
2022/07/09 05:46:59;;;;;;;10.20;4.90;;;16.20;91.80;;;;;;5069663;28;20029;-44
2022/07/09 05:49:25;;;;;;;10.65;4.35;;;16.30;91.70;;;;;;5069707;28;20057;-44
2022/07/09 05:51:51;;;;;;;11.25;3.97;;;16.30;91.70;;;;;;5052105;28;20063;-44
2022/07/09 05:54:19;;;;;;;8.43;4.40;;;16.40;91.60;;;;;;5070930;28;20418;-43
2022/07/09 05:56:44;;;;;;;12.18;4.90;;;16.40;91.60;;;;;;5086364;28;20024;-43
2022/07/09 05:59:10;;;;;;;7.13;4.07;;;16.40;91.60;;;;;;5083886;28;20024;-43
2022/07/09 06:01:39;;;;;;;10.10;4.18;;;16.50;91.50;;;;;;5083436;28;20533;-44
2022/07/09 06:04:07;;;;;;;11.00;4.32;;;16.50;91.50;;;;;;5060236;28;20074;-42
2022/07/09 06:06:33;;;;;;;6.95;3.83;;;16.50;91.30;;;;;;5052746;28;20036;-44
2022/07/09 06:09:01;;;;;;;10.70;3.70;;;16.50;91.20;;;;;;5081011;28;20047;-43
2022/07/09 06:11:27;;;;;;;8.02;3.80;;;16.60;91.10;;;;;;5054239;28;20029;-42
2022/07/09 06:13:55;;;;;;;9.10;3.83;;;16.70;91.00;;;;;;5071893;28;20088;-43
2022/07/09 06:16:20;;;;;;;9.68;3.47;;;16.80;90.80;;;;;;5070001;28;20016;-42
2022/07/09 06:18:48;;;;;;;6.80;3.47;;;16.90;90.60;;;;;;5068977;28;20465;-45
2022/07/09 06:21:14;;;;;;;5.72;3.00;;;17.10;90.40;;;;;;5069770;28;20035;-44
2022/07/09 06:23:40;;;;;;;8.95;2.95;;;17.10;89.50;;;;;;5069154;28;20346;-43
2022/07/09 06:26:06;;;;;;;7.18;2.47;;;17.10;89.40;;;;;;5070088;28;20024;-43
2022/07/09 06:28:32;;;;;;;6.60;2.40;;;17.10;89.00;;;;;;5068835;28;20039;-43
2022/07/09 06:30:57;;;;;;;7.93;3.13;;;17.20;88.90;;;;;;5068454;28;20036;-46
2022/07/09 06:33:23;;;;;;;7.88;2.50;;;17.20;88.80;;;;;;5051114;28;20464;-45
2022/07/09 06:35:49;;;;;;;8.68;3.35;;;17.30;88.80;;;;;;5068142;28;20362;-44
2022/07/09 06:38:14;;;;;;;4.90;2.33;;;17.30;88.40;;;;;;5069313;28;20446;-43
2022/07/09 06:40:40;;;;;;;4.80;2.45;;;17.20;88.30;;;;;;5069271;28;20039;-43
2022/07/09 06:43:07;;;;;;;7.30;2.45;;;17.40;88.10;;;;;;5027858;28;1205246;-44
2022/07/09 06:45:32;;;;;;;8.88;2.70;;;17.40;88.00;;;;;;5051951;28;20024;-44
2022/07/09 06:47:58;;;;;;;6.80;2.38;;;17.50;87.80;;;;;;5069946;28;20043;-46
2022/07/09 06:50:26;;;;;;;4.80;2.28;;;17.50;87.40;;;;;;5069417;28;20823;-48
2022/07/09 06:52:52;;;;;;;5.75;2.35;;;17.60;87.20;;;;;;5077766;28;20044;-44
2022/07/09 06:55:20;;;;;;;6.97;2.95;;;17.70;86.80;;;;;;5066153;28;20021;-44
2022/07/09 06:57:45;;;;;;;6.80;2.85;;;17.90;86.60;;;;;;5056941;28;20032;-44
2022/07/09 07:00:11;;;;;;;8.40;2.33;;;17.90;85.80;;;;;;5070325;28;20044;-47
2022/07/09 07:02:36;;;;;;;7.13;2.10;;;17.90;85.90;;;;;;5052552;28;20165;-45
2022/07/09 07:05:03;;;;;;;6.82;2.10;;;17.90;85.80;;;;;;5069606;28;20051;-47
2022/07/09 07:07:28;;;;;;;4.72;2.20;;;18.00;86.00;;;;;;5069401;28;20031;-45
2022/07/09 07:09:54;;;;;;;8.07;2.22;;;18.20;85.70;;;;;;5060354;28;20020;-46
2022/07/09 07:12:19;;;;;;;6.95;2.13;;;18.60;85.60;;;;;;5068378;28;20035;-46
2022/07/09 07:14:45;;;;;;;2.75;1.50;;;18.90;84.40;;;;;;5069146;28;20039;-46
2022/07/09 07:17:13;;;;;;;9.52;2.15;;;19.00;83.60;;;;;;5068900;28;20028;-49
2022/07/09 07:19:39;;;;;;;7.00;1.75;;;19.30;82.20;;;;;;5069053;28;20031;-47
2022/07/09 07:22:05;;;;;;;9.82;2.50;;;19.30;81.50;;;;;;5069205;28;20036;-44
2022/07/09 07:24:30;;;;;;;7.93;1.80;;;19.50;81.60;;;;;;5069378;28;20107;-48
2022/07/09 07:26:57;;;;;;;6.22;1.55;;;19.50;80.90;;;;;;5069425;28;20086;-45
2022/07/09 07:29:23;;;;;;;4.90;1.80;;;19.50;80.30;;;;;;5068108;28;20024;-45
2022/07/09 07:31:49;;;;;;;3.47;1.63;;;19.40;80.30;;;;;;5068526;28;20025;-45
2022/07/09 07:34:15;;;;;;;3.05;1.27;;;19.10;80.40;;;;;;5049111;28;20017;-45
2022/07/09 07:36:41;;;;;;;5.82;2.30;;;19.00;81.20;;;;;;5068729;28;20085;-44
2022/07/09 07:39:07;;;;;;;5.28;1.33;;;19.00;81.00;;;;;;5049940;28;20032;-46
2022/07/09 07:41:33;;;;;;;14.05;2.05;;;19.10;81.00;;;;;;5068680;28;20028;-49
2022/07/09 07:43:58;;;;;;;8.60;1.30;;;19.40;79.00;;;;;;5068916;28;20148;-45
2022/07/09 07:46:24;;;;;;;4.70;1.50;;;19.60;78.30;;;;;;5051302;28;20056;-45
2022/07/09 07:48:52;;;;;;;3.95;1.70;;;19.40;79.00;;;;;;5051580;28;20032;-47
2022/07/09 07:51:17;;;;;;;6.05;1.80;;;19.40;79.40;;;;;;5068849;28;20459;-45
2022/07/09 07:53:43;;;;;;;6.63;2.63;;;19.20;80.40;;;;;;5068179;28;20046;-46
2022/07/09 07:56:09;;;;;;;6.35;1.85;;;19.00;80.00;;;;;;5068739;28;20044;-45
2022/07/09 07:58:35;;;;;;;6.25;1.48;;;19.00;80.50;;;;;;5068915;28;20086;-45
2022/07/09 08:01:01;;;;;;;5.00;1.25;;;19.40;80.10;;;;;;5047956;28;20036;-44
2022/07/09 08:03:27;;;;;;;4.78;1.83;;;19.60;78.90;;;;;;5065949;28;20033;-45
2022/07/09 08:05:55;;;;;;;7.00;1.60;;;19.60;77.90;;;;;;5068296;28;20032;-45
2022/07/09 08:08:21;;;;;;;8.55;1.80;;;19.40;77.60;;;;;;5069109;28;20465;-45
2022/07/09 08:10:48;;;;;;;4.40;1.77;;;19.10;78.20;;;;;;5068750;28;20050;-46
2022/07/09 08:13:17;;;;;;;6.25;1.67;;;19.00;79.50;;;;;;5050429;28;20025;-45
2022/07/09 08:15:44;;;;;;;5.93;1.57;;;19.10;79.90;;;;;;5068395;28;20028;-45
2022/07/09 08:18:12;;;;;;;4.47;1.63;;;19.80;79.10;;;;;;5066819;28;20021;-45
2022/07/09 08:20:39;;;;;;;3.90;1.42;;;20.50;76.30;;;;;;5068314;28;20059;-47
2022/07/09 08:23:05;;;;;;;4.25;1.65;;;21.40;73.00;;;;;;5068327;28;20388;-45
2022/07/09 08:25:33;;;;;;;7.28;1.40;;;21.50;73.00;;;;;;5067490;28;20041;-45
2022/07/09 08:28:01;;;;;;;6.57;1.40;;;21.10;73.10;;;;;;5066637;28;20335;-48
2022/07/09 08:30:29;;;;;;;4.68;1.38;;;20.60;74.10;;;;;;5068058;28;20032;-47
2022/07/09 08:32:55;;;;;;;6.65;1.60;;;20.10;75.50;;;;;;5067871;28;20083;-45
2022/07/09 08:35:21;;;;;;;5.18;1.70;;;19.80;76.10;;;;;;5050370;28;20071;-45
2022/07/09 08:37:46;;;;;;;5.43;1.90;;;19.50;76.50;;;;;;5050248;28;20033;-45
2022/07/09 08:40:17;;;;;;;5.25;1.88;;;19.20;78.10;;;;;;5068168;28;20029;-45
2022/07/09 08:42:43;;;;;;;8.88;2.17;;;18.90;79.90;;;;;;5067991;28;20041;-45
2022/07/09 08:45:13;;;;;;;8.20;2.42;;;18.80;80.70;;;;;;5068420;28;20479;-46
2022/07/09 08:47:41;;;;;;;;;;;18.70;81.10;;;;;;5084149;28;20016;-45
2022/07/09 08:50:11;;;;;;;6.57;1.83;;;19.10;81.50;;;;;;5067874;28;19919;-45
2022/07/09 08:52:42;;;;;;;4.75;1.55;;;20.30;79.50;;;;;;5067436;28;20118;-47
2022/07/09 08:55:11;;;;;;;5.68;1.60;;;21.30;76.00;;;;;;5068435;28;20012;-46
2022/07/09 08:57:37;;;;;;;5.28;3.00;;;21.60;71.80;;;;;;5034201;28;20032;-46
2022/07/09 09:00:05;;;;;;;3.75;1.65;;;21.80;72.10;;;;;;5067893;28;20627;-45
2022/07/09 09:02:38;;;;;;;6.45;1.73;;;21.80;71.30;;;;;;5050220;28;20116;-47
2022/07/09 09:05:24;;;;;;;5.88;2.00;;;21.30;72.10;;;;;;5068040;28;20109;-46
2022/07/09 09:07:49;;;;;;;6.57;1.85;;;20.80;73.90;;;;;;5056025;28;20056;-46
2022/07/09 09:10:26;;;;;;;6.35;1.73;;;20.70;73.50;;;;;;5065908;28;20602;-45
2022/07/09 09:12:58;;;;;;;5.97;2.03;;;20.40;73.60;;;;;;5067878;28;20556;-46
2022/07/09 09:15:24;;;;;;;4.88;1.42;;;20.00;74.00;;;;;;5067741;28;20357;-45
2022/07/09 09:17:52;;;;;;;4.93;1.70;;;19.90;75.20;;;;;;5067464;28;20039;-45
2022/07/09 09:20:18;;;;;;;7.38;1.63;;;20.10;75.50;;;;;;5067942;28;20040;-45
2022/07/09 09:22:59;;;;;;;4.75;1.85;;;20.40;74.50;;;;;;5067477;28;20036;-45
2022/07/09 09:25:25;;;;;;;6.65;2.00;;;20.60;74.60;;;;;;5067626;28;20067;-48
2022/07/09 09:28:01;;;;;;;5.65;1.92;;;20.70;75.00;;;;;;5067587;28;20042;-46
2022/07/09 09:30:29;;;;;;;7.88;2.28;;;20.40;74.30;;;;;;5067912;28;20028;-45
2022/07/09 09:32:57;;;;;;;8.80;2.20;;;19.80;75.60;;;;;;5067438;28;20032;-45
2022/07/09 09:35:24;;;;;;;6.63;2.75;;;19.60;77.20;;;;;;5070046;28;20363;-45
2022/07/09 09:37:53;;;;;;;6.85;2.83;;;19.60;78.50;;;;;;5052756;28;20037;-46
2022/07/09 09:40:18;;;;;;;9.70;2.88;;;19.60;77.90;;;;;;5070856;28;20059;-45
2022/07/09 09:42:45;;;;;;;6.85;2.30;;;19.40;77.50;;;;;;5069311;28;20476;-50
2022/07/09 09:45:14;;;;;;;6.40;2.30;;;19.40;77.60;;;;;;5070634;28;20056;-45
2022/07/09 09:47:47;;;;;;;5.10;1.63;;;19.50;77.10;;;;;;5052924;28;20066;-47
2022/07/09 09:50:24;;;;;;;6.03;2.45;;;19.80;76.90;;;;;;5066646;28;20102;-47
2022/07/09 09:52:54;;;;;;;4.25;1.30;;;19.80;76.60;;;;;;5055509;28;20029;-45
2022/07/09 09:55:22;;;;;;;4.53;2.00;;;19.70;76.00;;;;;;5070631;28;20059;-47
2022/07/09 09:57:49;;;;;;;4.35;1.73;;;19.70;75.40;;;;;;5052238;28;20033;-49
2022/07/09 10:00:16;;;;;;;4.47;1.20;;;19.80;74.70;;;;;;5053782;28;20342;-46
2022/07/09 10:02:47;;;;;;;4.78;1.63;;;19.80;74.20;;;;;;5053359;28;20526;-46
2022/07/09 10:05:13;;;;;;;4.78;1.90;;;19.70;73.70;;;;;;5069583;28;20147;-45
2022/07/09 10:07:40;;;;;;;6.70;2.70;;;19.60;75.10;;;;;;5052752;28;20033;-45
2022/07/09 10:10:09;;;;;;;4.63;1.85;;;19.20;75.70;;;;;;5052569;28;20032;-45
2022/07/09 10:12:36;;;;;;;6.20;1.83;;;18.90;76.00;;;;;;5070761;28;20024;-46
2022/07/09 10:15:08;;;;;;;5.97;2.28;;;18.60;75.70;;;;;;5070152;28;20029;-47
2022/07/09 10:17:41;;;;;;;5.30;2.05;;;18.40;76.80;;;;;;5070097;28;20020;-45
2022/07/09 10:20:07;;;;;;;5.03;1.65;;;18.50;76.40;;;;;;5053232;28;20054;-45
2022/07/09 10:22:40;;;;;;;6.38;1.98;;;18.60;74.30;;;;;;5069663;28;20020;-46
2022/07/09 10:25:06;;;;;;;9.20;2.03;;;18.50;74.40;;;;;;5071625;28;20346;-47
2022/07/09 10:27:48;;;;;;;6.55;1.98;;;18.40;74.80;;;;;;5075602;28;20028;-47
2022/07/09 10:30:26;;;;;;;5.20;1.85;;;18.30;75.10;;;;;;5068423;28;20318;-46
2022/07/09 10:33:34;;;;;;;5.90;1.90;;;18.30;75.10;;;;;;5067981;28;20106;-45
2022/07/09 10:36:11;;;;;;;7.97;2.55;;;18.40;75.20;;;;;;5047575;28;20044;-47
2022/07/09 10:38:39;;;;;;;7.78;1.90;;;18.60;74.30;;;;;;5067155;28;20447;-46
2022/07/09 10:41:08;;;;;;;9.18;2.10;;;18.70;73.20;;;;;;5069260;28;20357;-45
2022/07/09 10:43:44;;;;;;;10.02;2.45;;;18.70;71.90;;;;;;5051849;28;20059;-48
2022/07/09 10:46:11;;;;;;;9.10;2.20;;;18.80;73.60;;;;;;5059159;28;20039;-47
2022/07/09 10:48:37;;;;;;;9.63;2.35;;;18.80;74.30;;;;;;5068644;28;20115;-44
2022/07/09 10:51:03;;;;;;;9.35;2.00;;;18.90;74.10;;;;;;5068669;28;20583;-45
2022/07/09 10:53:29;;;;;;;8.25;1.95;;;18.70;71.70;;;;;;5068845;28;20041;-45
2022/07/09 10:55:58;;;;;;;9.30;2.15;;;18.60;72.40;;;;;;5069074;28;20043;-46
2022/07/09 10:58:28;;;;;;;11.00;2.38;;;18.60;71.00;;;;;;5069492;28;20091;-46
2022/07/09 11:01:04;;;;;;;8.88;3.38;;;18.80;72.40;;;;;;5069168;28;20017;-45
2022/07/09 11:03:33;;;;;;;11.75;2.58;;;18.90;72.10;;;;;;5069900;28;20036;-46
2022/07/09 11:06:01;;;;;;;9.77;2.08;;;19.20;70.00;;;;;;5070079;28;20032;-46
2022/07/09 11:08:30;;;;;;;7.20;2.17;;;19.40;70.00;;;;;;5070345;28;20036;-45
2022/07/09 11:10:56;;;;;;;9.60;2.20;;;19.50;69.60;;;;;;5069872;28;20107;-47
2022/07/09 11:13:26;;;;;;;5.95;1.92;;;19.50;67.90;;;;;;5069076;28;20100;-46
2022/07/09 11:16:01;;;;;;;9.23;2.38;;;20.10;70.30;;;;;;5069484;28;20039;-46
2022/07/09 11:18:28;;;;;;;9.20;2.13;;;20.40;65.70;;;;;;5051902;28;20020;-45
2022/07/09 11:20:54;;;;;;;9.25;1.80;;;20.60;66.50;;;;;;5051907;28;20029;-45
2022/07/09 11:23:20;;;;;;;9.77;2.05;;;20.60;64.80;;;;;;5069404;28;20121;-49
2022/07/09 11:25:46;;;;;;;8.95;2.10;;;20.60;67.00;;;;;;5069421;28;20043;-46
2022/07/09 11:28:23;;;;;;;8.80;2.13;;;20.90;64.70;;;;;;5069412;28;20060;-46
2022/07/09 11:31:03;;;;;;;6.25;1.80;;;21.00;62.90;;;;;;5069115;28;20481;-46
2022/07/09 11:34:10;;;;;;;12.55;1.60;;;20.70;64.20;;;;;;5069206;28;20037;-44
2022/07/09 11:36:16;;;;;;;6.22;1.42;;;20.50;64.80;;;;;;5069397;28;20424;-45
2022/07/09 11:38:52;;;;;;;5.97;1.33;;;20.60;63.20;;;;;;5069225;28;20085;-47
2022/07/09 11:41:18;;;;;;;8.50;1.90;;;20.60;61.00;;;;;;5051993;28;20042;-46
2022/07/09 11:43:53;;;;;;;5.95;1.58;;;20.50;60.10;;;;;;5068655;28;20041;-46
2022/07/09 11:46:21;;;;;;;4.03;1.13;;;20.50;61.40;;;;;;5051495;28;20056;-45
2022/07/09 11:48:51;;;;;;;5.78;1.67;;;20.40;58.90;;;;;;5051655;28;20043;-46
2022/07/09 11:51:37;;;;;;;5.28;1.55;;;20.60;58.50;;;;;;5051253;28;20037;-44
2022/07/09 11:54:03;;;;;;;4.97;1.15;;;20.70;59.60;;;;;;5069185;28;20454;-46
2022/07/09 11:56:45;;;;;;;5.65;1.20;;;20.50;59.50;;;;;;5068682;28;20028;-45
2022/07/09 11:59:12;;;;;;;5.63;1.73;;;20.40;61.00;;;;;;5068701;28;20024;-46
2022/07/09 12:01:38;;;;;;;11.38;1.88;;;20.40;61.00;;;;;;5051039;28;20025;-46
2022/07/09 12:04:05;;;;;;;10.48;2.58;;;20.40;60.90;;;;;;5068864;28;20427;-45
2022/07/09 12:06:31;;;;;;;6.80;1.63;;;20.40;62.60;;;;;;5068753;28;20411;-46
2022/07/09 12:09:04;;;;;;;9.02;1.75;;;20.40;62.20;;;;;;5068353;28;20043;-45
2022/07/09 12:11:30;;;;;;;6.75;1.38;;;19.80;63.50;;;;;;5068594;28;20031;-47
2022/07/09 12:13:57;;;;;;;10.68;1.73;;;19.50;63.40;;;;;;5068802;28;20085;-46
2022/07/09 12:16:22;;;;;;;9.27;1.73;;;19.30;65.50;;;;;;5068669;28;20035;-46
2022/07/09 12:18:48;;;;;;;9.35;2.50;;;19.10;66.90;;;;;;5068260;28;20028;-45
2022/07/09 12:21:13;;;;;;;9.13;1.65;;;19.40;66.50;;;;;;5068893;28;20024;-46
2022/07/09 12:23:39;;;;;;;5.85;2.20;;;19.90;64.80;;;;;;5068103;28;20456;-48
2022/07/09 12:26:07;;;;;;;6.88;1.55;;;20.00;60.50;;;;;;5068914;28;20081;-45
2022/07/09 12:28:32;;;;;;;8.73;1.33;;;19.80;59.70;;;;;;5068575;28;20035;-47
2022/07/09 12:30:58;;;;;;;6.50;1.45;;;19.70;58.00;;;;;;5034348;28;20025;-45
2022/07/09 12:33:24;;;;;;;5.05;1.05;;;19.80;58.70;;;;;;5068218;28;20353;-47
2022/07/09 12:35:49;;;;;;;8.18;0.93;;;19.90;58.60;;;;;;5068314;28;20043;-46
2022/07/09 12:38:15;;;;;;;5.82;1.20;;;19.90;57.70;;;;;;5050462;28;20365;-45
2022/07/09 12:40:43;;;;;;;5.25;1.40;;;19.80;58.50;;;;;;5067986;28;20066;-45
2022/07/09 12:43:08;;;;;;;4.53;1.10;;;19.70;58.30;;;;;;5067412;28;20036;-45
2022/07/09 12:45:34;;;;;;;5.60;1.65;;;19.60;59.30;;;;;;5066126;28;20350;-48